sensor_id;sensor_type;location;lat;lon;timestamp;pressure;altitude;pressure_sealevel;temperature;humidity
48882;BME280;57063;51.406;-2.402;2022-08-07T00:00:41;101752.81;;;19.97;54.81
48882;BME280;57063;51.406;-2.402;2022-08-07T00:03:07;101746.16;;;20.12;54.92
48882;BME280;57063;51.406;-2.402;2022-08-07T00:05:36;101742.38;;;20.15;54.10
48882;BME280;57063;51.406;-2.402;2022-08-07T00:08:02;101745.84;;;20.06;54.39
48882;BME280;57063;51.406;-2.402;2022-08-07T00:10:28;101742.50;;;20.13;53.85
48882;BME280;57063;51.406;-2.402;2022-08-07T00:12:55;101738.13;;;20.03;54.36
48882;BME280;57063;51.406;-2.402;2022-08-07T00:15:20;101740.38;;;20.07;54.55
48882;BME280;57063;51.406;-2.402;2022-08-07T00:17:46;101737.84;;;20.06;54.31
48882;BME280;57063;51.406;-2.402;2022-08-07T00:20:11;101740.09;;;20.00;54.66
48882;BME280;57063;51.406;-2.402;2022-08-07T00:22:36;101740.47;;;19.96;54.04
48882;BME280;57063;51.406;-2.402;2022-08-07T00:25:04;101740.63;;;20.04;54.85
48882;BME280;57063;51.406;-2.402;2022-08-07T00:27:29;101742.94;;;19.88;54.70
48882;BME280;57063;51.406;-2.402;2022-08-07T00:29:55;101739.03;;;19.92;55.84
48882;BME280;57063;51.406;-2.402;2022-08-07T00:32:20;101723.88;;;19.92;55.17
48882;BME280;57063;51.406;-2.402;2022-08-07T00:34:45;101739.97;;;19.81;56.08
48882;BME280;57063;51.406;-2.402;2022-08-07T00:37:16;101739.41;;;19.77;56.49
48882;BME280;57063;51.406;-2.402;2022-08-07T00:39:41;101734.31;;;19.74;56.82
48882;BME280;57063;51.406;-2.402;2022-08-07T00:42:07;101739.94;;;19.71;56.87
48882;BME280;57063;51.406;-2.402;2022-08-07T00:44:34;101733.13;;;19.67;56.49
48882;BME280;57063;51.406;-2.402;2022-08-07T00:47:01;101735.66;;;19.69;56.96
48882;BME280;57063;51.406;-2.402;2022-08-07T00:49:26;101736.34;;;19.61;57.14
48882;BME280;57063;51.406;-2.402;2022-08-07T00:51:52;101732.63;;;19.52;57.65
48882;BME280;57063;51.406;-2.402;2022-08-07T00:54:17;101728.28;;;19.51;58.30
48882;BME280;57063;51.406;-2.402;2022-08-07T00:56:43;101728.91;;;19.44;58.27
48882;BME280;57063;51.406;-2.402;2022-08-07T00:59:09;101725.16;;;19.46;58.63
48882;BME280;57063;51.406;-2.402;2022-08-07T01:01:34;101731.59;;;19.44;59.61
48882;BME280;57063;51.406;-2.402;2022-08-07T01:04:04;101730.22;;;19.49;59.26
48882;BME280;57063;51.406;-2.402;2022-08-07T01:06:29;101721.75;;;19.23;59.68
48882;BME280;57063;51.406;-2.402;2022-08-07T01:08:55;101718.84;;;19.26;59.75
48882;BME280;57063;51.406;-2.402;2022-08-07T01:11:21;101720.91;;;19.22;60.44
48882;BME280;57063;51.406;-2.402;2022-08-07T01:13:46;101721.56;;;19.15;60.91
48882;BME280;57063;51.406;-2.402;2022-08-07T01:16:12;101718.56;;;19.08;61.96
48882;BME280;57063;51.406;-2.402;2022-08-07T01:18:38;101718.69;;;19.07;62.08
48882;BME280;57063;51.406;-2.402;2022-08-07T01:21:15;101715.50;;;19.13;63.44
48882;BME280;57063;51.406;-2.402;2022-08-07T01:23:44;101712.16;;;18.99;65.50
48882;BME280;57063;51.406;-2.402;2022-08-07T01:26:13;101712.69;;;18.93;65.40
48882;BME280;57063;51.406;-2.402;2022-08-07T01:28:40;101711.13;;;18.91;66.88
48882;BME280;57063;51.406;-2.402;2022-08-07T01:31:06;101712.03;;;18.80;67.42
48882;BME280;57063;51.406;-2.402;2022-08-07T01:33:32;101717.34;;;18.69;68.01
48882;BME280;57063;51.406;-2.402;2022-08-07T01:35:58;101713.97;;;18.55;68.82
48882;BME280;57063;51.406;-2.402;2022-08-07T01:38:27;101719.06;;;18.58;70.65
48882;BME280;57063;51.406;-2.402;2022-08-07T01:40:57;101717.53;;;18.45;71.34
48882;BME280;57063;51.406;-2.402;2022-08-07T01:43:23;101719.69;;;18.39;71.94
48882;BME280;57063;51.406;-2.402;2022-08-07T01:45:50;101720.78;;;18.37;72.59
48882;BME280;57063;51.406;-2.402;2022-08-07T01:48:15;101711.00;;;18.26;72.19
48882;BME280;57063;51.406;-2.402;2022-08-07T01:50:44;101713.66;;;18.26;71.74
48882;BME280;57063;51.406;-2.402;2022-08-07T01:53:12;101725.16;;;18.15;72.58
48882;BME280;57063;51.406;-2.402;2022-08-07T01:55:41;101727.44;;;18.09;72.47
48882;BME280;57063;51.406;-2.402;2022-08-07T01:58:09;101724.66;;;17.99;73.48
48882;BME280;57063;51.406;-2.402;2022-08-07T02:00:37;101724.41;;;17.91;73.91
48882;BME280;57063;51.406;-2.402;2022-08-07T02:03:10;101718.16;;;18.03;73.86
48882;BME280;57063;51.406;-2.402;2022-08-07T02:05:43;101719.81;;;17.93;73.19
48882;BME280;57063;51.406;-2.402;2022-08-07T02:08:15;101722.75;;;17.90;73.97
48882;BME280;57063;51.406;-2.402;2022-08-07T02:10:42;101726.34;;;17.89;74.46
48882;BME280;57063;51.406;-2.402;2022-08-07T02:13:09;101717.25;;;17.80;75.42
48882;BME280;57063;51.406;-2.402;2022-08-07T02:15:38;101727.88;;;17.80;75.34
48882;BME280;57063;51.406;-2.402;2022-08-07T02:18:05;101718.44;;;17.64;74.23
48882;BME280;57063;51.406;-2.402;2022-08-07T02:20:33;101723.13;;;17.50;75.52
48882;BME280;57063;51.406;-2.402;2022-08-07T02:23:01;101725.91;;;17.48;76.87
48882;BME280;57063;51.406;-2.402;2022-08-07T02:25:29;101718.66;;;17.50;77.08
48882;BME280;57063;51.406;-2.402;2022-08-07T02:27:57;101723.94;;;17.39;77.81
48882;BME280;57063;51.406;-2.402;2022-08-07T02:30:26;101716.81;;;17.39;77.75
48882;BME280;57063;51.406;-2.402;2022-08-07T02:32:51;101719.81;;;17.35;77.94
48882;BME280;57063;51.406;-2.402;2022-08-07T02:35:18;101719.81;;;17.35;77.48
48882;BME280;57063;51.406;-2.402;2022-08-07T02:37:45;101721.38;;;17.26;78.02
48882;BME280;57063;51.406;-2.402;2022-08-07T02:40:13;101718.78;;;17.13;79.16
48882;BME280;57063;51.406;-2.402;2022-08-07T02:42:39;101722.06;;;17.17;79.06
48882;BME280;57063;51.406;-2.402;2022-08-07T02:45:07;101724.97;;;17.25;78.11
48882;BME280;57063;51.406;-2.402;2022-08-07T02:47:34;101711.41;;;17.05;77.92
48882;BME280;57063;51.406;-2.402;2022-08-07T02:50:00;101720.53;;;17.01;79.33
48882;BME280;57063;51.406;-2.402;2022-08-07T02:52:31;101723.47;;;17.10;79.56
48882;BME280;57063;51.406;-2.402;2022-08-07T02:55:01;101717.41;;;16.96;79.59
48882;BME280;57063;51.406;-2.402;2022-08-07T02:57:27;101728.22;;;16.93;79.89
48882;BME280;57063;51.406;-2.402;2022-08-07T02:59:55;101724.75;;;16.80;80.10
48882;BME280;57063;51.406;-2.402;2022-08-07T03:02:22;101724.91;;;16.65;81.15
48882;BME280;57063;51.406;-2.402;2022-08-07T03:04:48;101720.00;;;16.85;80.18
48882;BME280;57063;51.406;-2.402;2022-08-07T03:07:16;101717.44;;;16.83;79.76
48882;BME280;57063;51.406;-2.402;2022-08-07T03:09:43;101718.69;;;16.91;80.07
48882;BME280;57063;51.406;-2.402;2022-08-07T03:12:09;101716.38;;;16.86;80.41
48882;BME280;57063;51.406;-2.402;2022-08-07T03:14:36;101713.72;;;16.86;80.20
48882;BME280;57063;51.406;-2.402;2022-08-07T03:17:05;101711.94;;;16.87;80.06
48882;BME280;57063;51.406;-2.402;2022-08-07T03:19:32;101714.38;;;16.77;80.25
48882;BME280;57063;51.406;-2.402;2022-08-07T03:21:58;101713.13;;;16.70;79.25
48882;BME280;57063;51.406;-2.402;2022-08-07T03:24:23;101712.19;;;16.71;80.65
48882;BME280;57063;51.406;-2.402;2022-08-07T03:26:49;101713.34;;;16.66;80.99
48882;BME280;57063;51.406;-2.402;2022-08-07T03:29:17;101711.38;;;16.57;81.71
48882;BME280;57063;51.406;-2.402;2022-08-07T03:31:44;101702.25;;;16.61;81.49
48882;BME280;57063;51.406;-2.402;2022-08-07T03:34:10;101711.69;;;16.53;81.85
48882;BME280;57063;51.406;-2.402;2022-08-07T03:36:38;101705.66;;;16.51;81.24
48882;BME280;57063;51.406;-2.402;2022-08-07T03:39:07;101701.50;;;16.59;81.85
48882;BME280;57063;51.406;-2.402;2022-08-07T03:41:34;101706.28;;;16.54;81.54
48882;BME280;57063;51.406;-2.402;2022-08-07T03:44:00;101701.09;;;16.53;81.34
48882;BME280;57063;51.406;-2.402;2022-08-07T03:46:26;101703.34;;;16.46;81.20
48882;BME280;57063;51.406;-2.402;2022-08-07T03:48:52;101703.13;;;16.49;81.44
48882;BME280;57063;51.406;-2.402;2022-08-07T03:51:19;101707.34;;;16.52;81.41
48882;BME280;57063;51.406;-2.402;2022-08-07T03:53:45;101701.88;;;16.42;81.75
48882;BME280;57063;51.406;-2.402;2022-08-07T03:56:13;101701.22;;;16.51;81.60
48882;BME280;57063;51.406;-2.402;2022-08-07T03:58:40;101698.88;;;16.46;81.47
48882;BME280;57063;51.406;-2.402;2022-08-07T04:01:09;101701.84;;;16.55;80.47
48882;BME280;57063;51.406;-2.402;2022-08-07T04:03:35;101703.59;;;16.43;81.58
48882;BME280;57063;51.406;-2.402;2022-08-07T04:06:00;101709.72;;;16.43;82.41
48882;BME280;57063;51.406;-2.402;2022-08-07T04:08:26;101697.09;;;16.47;81.66
48882;BME280;57063;51.406;-2.402;2022-08-07T04:10:53;101705.06;;;16.47;81.99
48882;BME280;57063;51.406;-2.402;2022-08-07T04:13:19;101699.97;;;16.44;82.59
48882;BME280;57063;51.406;-2.402;2022-08-07T04:15:46;101704.31;;;16.45;82.34
48882;BME280;57063;51.406;-2.402;2022-08-07T04:18:13;101714.50;;;16.38;81.42
48882;BME280;57063;51.406;-2.402;2022-08-07T04:20:39;101699.28;;;16.29;82.81
48882;BME280;57063;51.406;-2.402;2022-08-07T04:23:05;101702.75;;;16.30;82.08
48882;BME280;57063;51.406;-2.402;2022-08-07T04:25:32;101695.84;;;16.27;82.89
48882;BME280;57063;51.406;-2.402;2022-08-07T04:27:58;101694.53;;;16.21;81.21
48882;BME280;57063;51.406;-2.402;2022-08-07T04:30:24;101698.09;;;16.20;82.71
48882;BME280;57063;51.406;-2.402;2022-08-07T04:32:49;101699.28;;;16.16;82.18
48882;BME280;57063;51.406;-2.402;2022-08-07T04:35:15;101701.94;;;16.16;82.19
48882;BME280;57063;51.406;-2.402;2022-08-07T04:37:41;101694.09;;;16.15;82.80
48882;BME280;57063;51.406;-2.402;2022-08-07T04:40:06;101704.69;;;16.15;82.45
48882;BME280;57063;51.406;-2.402;2022-08-07T04:42:32;101702.28;;;16.12;82.86
48882;BME280;57063;51.406;-2.402;2022-08-07T04:45:00;101696.00;;;16.13;82.71
48882;BME280;57063;51.406;-2.402;2022-08-07T04:50:37;101699.38;;;16.15;82.55
48882;BME280;57063;51.406;-2.402;2022-08-07T04:53:11;101692.75;;;15.96;83.09
48882;BME280;57063;51.406;-2.402;2022-08-07T04:55:58;101694.44;;;15.84;83.97
48882;BME280;57063;51.406;-2.402;2022-08-07T04:58:36;101689.47;;;15.93;84.12
48882;BME280;57063;51.406;-2.402;2022-08-07T05:01:16;101695.59;;;16.06;83.64
48882;BME280;57063;51.406;-2.402;2022-08-07T05:03:54;101696.84;;;16.13;83.43
48882;BME280;57063;51.406;-2.402;2022-08-07T05:07:02;101691.53;;;16.13;83.12
48882;BME280;57063;51.406;-2.402;2022-08-07T05:09:41;101695.16;;;16.12;82.62
48882;BME280;57063;51.406;-2.402;2022-08-07T05:12:09;101702.38;;;16.10;83.46
48882;BME280;57063;51.406;-2.402;2022-08-07T05:14:40;101693.25;;;16.14;83.56
48882;BME280;57063;51.406;-2.402;2022-08-07T05:17:09;101701.09;;;16.16;82.82
48882;BME280;57063;51.406;-2.402;2022-08-07T05:19:39;101705.13;;;16.21;82.99
48882;BME280;57063;51.406;-2.402;2022-08-07T05:22:07;101701.50;;;16.22;82.82
48882;BME280;57063;51.406;-2.402;2022-08-07T05:24:35;101702.13;;;16.26;82.88
48882;BME280;57063;51.406;-2.402;2022-08-07T05:27:00;101708.50;;;16.23;82.84
48882;BME280;57063;51.406;-2.402;2022-08-07T05:29:27;101703.94;;;16.25;81.52
48882;BME280;57063;51.406;-2.402;2022-08-07T05:31:54;101711.66;;;16.29;82.58
48882;BME280;57063;51.406;-2.402;2022-08-07T05:34:22;101701.72;;;16.19;82.46
48882;BME280;57063;51.406;-2.402;2022-08-07T05:36:49;101706.59;;;16.25;83.37
48882;BME280;57063;51.406;-2.402;2022-08-07T05:39:17;101710.72;;;16.30;82.94
48882;BME280;57063;51.406;-2.402;2022-08-07T05:41:43;101717.94;;;16.28;83.17
48882;BME280;57063;51.406;-2.402;2022-08-07T05:44:12;101712.53;;;16.29;82.77
48882;BME280;57063;51.406;-2.402;2022-08-07T05:46:39;101711.88;;;16.25;83.12
48882;BME280;57063;51.406;-2.402;2022-08-07T05:49:08;101715.03;;;16.31;82.02
48882;BME280;57063;51.406;-2.402;2022-08-07T05:51:34;101720.69;;;16.26;82.97
48882;BME280;57063;51.406;-2.402;2022-08-07T05:54:00;101715.03;;;16.31;81.77
48882;BME280;57063;51.406;-2.402;2022-08-07T05:56:26;101714.84;;;16.34;82.21
48882;BME280;57063;51.406;-2.402;2022-08-07T05:58:53;101722.13;;;16.43;81.73
48882;BME280;57063;51.406;-2.402;2022-08-07T06:01:19;101724.88;;;16.41;82.56
48882;BME280;57063;51.406;-2.402;2022-08-07T06:03:47;101717.53;;;16.58;82.10
48882;BME280;57063;51.406;-2.402;2022-08-07T06:06:15;101715.22;;;16.53;81.70
48882;BME280;57063;51.406;-2.402;2022-08-07T06:08:42;101716.88;;;16.54;82.12
48882;BME280;57063;51.406;-2.402;2022-08-07T06:11:08;101717.91;;;16.64;82.47
48882;BME280;57063;51.406;-2.402;2022-08-07T06:13:37;101722.34;;;16.77;81.20
48882;BME280;57063;51.406;-2.402;2022-08-07T06:16:02;101715.94;;;16.79;82.08
48882;BME280;57063;51.406;-2.402;2022-08-07T06:18:31;101714.91;;;16.82;81.81
48882;BME280;57063;51.406;-2.402;2022-08-07T06:20:59;101721.97;;;16.94;82.13
48882;BME280;57063;51.406;-2.402;2022-08-07T06:23:24;101715.88;;;17.05;81.40
48882;BME280;57063;51.406;-2.402;2022-08-07T06:25:50;101724.72;;;17.17;80.48
48882;BME280;57063;51.406;-2.402;2022-08-07T06:28:15;101728.16;;;17.30;79.79
48882;BME280;57063;51.406;-2.402;2022-08-07T06:30:41;101718.28;;;17.43;78.43
48882;BME280;57063;51.406;-2.402;2022-08-07T06:33:07;101726.53;;;17.52;78.33
48882;BME280;57063;51.406;-2.402;2022-08-07T06:35:34;101728.72;;;17.80;78.37
48882;BME280;57063;51.406;-2.402;2022-08-07T06:38:00;101730.41;;;19.57;74.24
48882;BME280;57063;51.406;-2.402;2022-08-07T06:40:28;101718.09;;;27.69;44.70
48882;BME280;57063;51.406;-2.402;2022-08-07T06:42:55;101713.41;;;31.03;35.28
48882;BME280;57063;51.406;-2.402;2022-08-07T06:45:21;101713.56;;;32.65;32.09
48882;BME280;57063;51.406;-2.402;2022-08-07T06:47:47;101719.59;;;33.49;30.00
48882;BME280;57063;51.406;-2.402;2022-08-07T06:50:13;101706.75;;;35.90;27.69
48882;BME280;57063;51.406;-2.402;2022-08-07T06:52:41;101714.34;;;37.25;24.54
48882;BME280;57063;51.406;-2.402;2022-08-07T06:55:17;101714.91;;;37.44;24.20
48882;BME280;57063;51.406;-2.402;2022-08-07T06:57:43;101696.34;;;38.72;22.60
48882;BME280;57063;51.406;-2.402;2022-08-07T07:00:09;101705.16;;;39.12;22.08
48882;BME280;57063;51.406;-2.402;2022-08-07T07:02:35;101708.97;;;39.48;22.66
48882;BME280;57063;51.406;-2.402;2022-08-07T07:05:00;101705.66;;;40.19;21.13
48882;BME280;57063;51.406;-2.402;2022-08-07T07:07:26;101705.72;;;40.91;19.71
48882;BME280;57063;51.406;-2.402;2022-08-07T07:09:51;101697.56;;;42.90;19.02
48882;BME280;57063;51.406;-2.402;2022-08-07T07:14:50;101702.88;;;42.82;18.75
48882;BME280;57063;51.406;-2.402;2022-08-07T07:19:49;101704.25;;;43.56;17.40
48882;BME280;57063;51.406;-2.402;2022-08-07T07:22:17;101700.13;;;45.14;16.13
48882;BME280;57063;51.406;-2.402;2022-08-07T07:24:43;101705.78;;;44.63;16.41
48882;BME280;57063;51.406;-2.402;2022-08-07T07:27:09;101703.94;;;45.60;16.36
48882;BME280;57063;51.406;-2.402;2022-08-07T07:29:37;101705.66;;;45.14;15.55
48882;BME280;57063;51.406;-2.402;2022-08-07T07:32:04;101714.03;;;46.29;15.76
48882;BME280;57063;51.406;-2.402;2022-08-07T07:34:31;101707.41;;;46.61;15.51
48882;BME280;57063;51.406;-2.402;2022-08-07T07:37:01;101721.91;;;46.49;15.01
48882;BME280;57063;51.406;-2.402;2022-08-07T07:39:27;101712.34;;;46.96;14.87
48882;BME280;57063;51.406;-2.402;2022-08-07T07:41:54;101715.78;;;46.93;15.33
48882;BME280;57063;51.406;-2.402;2022-08-07T07:44:20;101714.09;;;48.06;14.77
48882;BME280;57063;51.406;-2.402;2022-08-07T07:46:46;101708.38;;;47.19;14.65
48882;BME280;57063;51.406;-2.402;2022-08-07T07:49:14;101696.22;;;48.42;14.18
48882;BME280;57063;51.406;-2.402;2022-08-07T07:51:39;101694.97;;;47.21;14.89
48882;BME280;57063;51.406;-2.402;2022-08-07T07:54:06;101710.34;;;48.11;14.53
48882;BME280;57063;51.406;-2.402;2022-08-07T07:56:32;101666.94;;;48.83;13.87
48882;BME280;57063;51.406;-2.402;2022-08-07T07:58:59;101676.59;;;48.30;14.22
48882;BME280;57063;51.406;-2.402;2022-08-07T08:01:25;101698.03;;;49.03;13.79
48882;BME280;57063;51.406;-2.402;2022-08-07T08:03:52;101704.44;;;48.04;14.45
48882;BME280;57063;51.406;-2.402;2022-08-07T08:06:19;101697.09;;;47.99;14.59
48882;BME280;57063;51.406;-2.402;2022-08-07T08:08:45;101685.09;;;48.16;14.92
48882;BME280;57063;51.406;-2.402;2022-08-07T08:11:12;101688.03;;;48.93;14.41
48882;BME280;57063;51.406;-2.402;2022-08-07T08:13:40;101589.44;;;48.68;13.63
48882;BME280;57063;51.406;-2.402;2022-08-07T08:16:06;101588.06;;;49.34;12.73
48882;BME280;57063;51.406;-2.402;2022-08-07T08:18:32;101624.88;;;49.06;13.62
48882;BME280;57063;51.406;-2.402;2022-08-07T08:20:59;101672.97;;;48.94;13.92
48882;BME280;57063;51.406;-2.402;2022-08-07T08:23:25;101693.13;;;47.83;14.93
48882;BME280;57063;51.406;-2.402;2022-08-07T08:26:10;101661.41;;;48.75;14.73
48882;BME280;57063;51.406;-2.402;2022-08-07T08:28:54;101543.31;;;47.06;15.22
48882;BME280;57063;51.406;-2.402;2022-08-07T08:31:27;101545.34;;;45.08;16.40
48882;BME280;57063;51.406;-2.402;2022-08-07T08:33:53;101568.81;;;45.10;16.62
48882;BME280;57063;51.406;-2.402;2022-08-07T08:36:19;101689.47;;;45.08;16.22
48882;BME280;57063;51.406;-2.402;2022-08-07T08:38:45;101695.81;;;44.10;16.63
48882;BME280;57063;51.406;-2.402;2022-08-07T08:43:45;101675.63;;;46.22;15.57
48882;BME280;57063;51.406;-2.402;2022-08-07T08:46:12;101677.00;;;45.75;16.36
48882;BME280;57063;51.406;-2.402;2022-08-07T08:51:11;101674.78;;;47.64;13.44
48882;BME280;57063;51.406;-2.402;2022-08-07T08:53:55;101663.78;;;47.51;13.80
48882;BME280;57063;51.406;-2.402;2022-08-07T08:56:29;101678.91;;;47.76;14.18
48882;BME280;57063;51.406;-2.402;2022-08-07T08:59:05;101676.75;;;47.73;14.25
48882;BME280;57063;51.406;-2.402;2022-08-07T09:01:52;101664.31;;;48.31;13.84
48882;BME280;57063;51.406;-2.402;2022-08-07T09:04:44;101657.88;;;46.32;15.51
48882;BME280;57063;51.406;-2.402;2022-08-07T09:07:17;101606.22;;;46.85;15.55
48882;BME280;57063;51.406;-2.402;2022-08-07T09:12:36;101652.63;;;49.53;14.03
48882;BME280;57063;51.406;-2.402;2022-08-07T09:18:32;101660.63;;;42.12;18.72
48882;BME280;57063;51.406;-2.402;2022-08-07T09:24:15;101656.69;;;38.95;22.22
48882;BME280;57063;51.406;-2.402;2022-08-07T09:52:50;101651.53;;;36.51;23.43
48882;BME280;57063;51.406;-2.402;2022-08-07T09:55:21;101646.56;;;36.31;24.14
48882;BME280;57063;51.406;-2.402;2022-08-07T09:58:03;101643.59;;;35.75;26.53
